BJK21 KSTL-KDFW
Flight info
| Callsign | BJK21 |
|---|---|
| Flight time | 1h 22m |
| Altitude | 36000 |
| Route | JAHNY6 MAP FSM KOMMA RRNET SEEVR4 |
| Aircraft | A321/M-SDE3FGHIRWY/LB1 |
Departure
| Time | 2026-05-04 14:57 |
|---|---|
| Airport | St. Louis Lambert International Airport (KSTL) |
Arrival
| Time | 2026-05-04 16:20 |
|---|---|
| Airport | Dallas Fort Worth International Airport (KDFW) |
| Time | Latitude | Longitude | Altitude | Speed | Heading |
|---|---|---|---|---|---|
| 2026-05-04 14:41 | 38.74259 | -90.36217 | 617 ft | 0 kts | 217° |
| 2026-05-04 14:43 | 38.74262 | -90.36214 | 629 ft | 3 kts | 217° |
| 2026-05-04 14:43 | 38.74277 | -90.36200 | 627 ft | 3 kts | 217° |
| 2026-05-04 14:43 | 38.74290 | -90.36187 | 624 ft | 3 kts | 224° |
| 2026-05-04 14:44 | 38.74299 | -90.36166 | 630 ft | 3 kts | 286° |
| 2026-05-04 14:44 | 38.74296 | -90.36152 | 624 ft | 0 kts | 285° |
| 2026-05-04 14:50 | 38.74296 | -90.36153 | 623 ft | 1 kts | 285° |
| 2026-05-04 14:50 | 38.74307 | -90.36189 | 620 ft | 7 kts | 298° |
| 2026-05-04 14:50 | 38.74342 | -90.36245 | 630 ft | 9 kts | 310° |
| 2026-05-04 14:51 | 38.74385 | -90.36311 | 617 ft | 10 kts | 310° |
| 2026-05-04 14:51 | 38.74451 | -90.36342 | 622 ft | 11 kts | 353° |
| 2026-05-04 14:51 | 38.74509 | -90.36411 | 622 ft | 12 kts | 302° |
| 2026-05-04 14:51 | 38.74558 | -90.36512 | 630 ft | 14 kts | 301° |
| 2026-05-04 14:52 | 38.74623 | -90.36650 | 623 ft | 21 kts | 301° |
| 2026-05-04 14:52 | 38.74699 | -90.36813 | 622 ft | 22 kts | 301° |
| 2026-05-04 14:52 | 38.74785 | -90.36974 | 627 ft | 22 kts | 304° |
| 2026-05-04 14:52 | 38.74870 | -90.37142 | 619 ft | 23 kts | 302° |
| 2026-05-04 14:53 | 38.74955 | -90.37315 | 621 ft | 22 kts | 302° |
| 2026-05-04 14:53 | 38.75020 | -90.37450 | 626 ft | 14 kts | 301° |
| 2026-05-04 14:53 | 38.75031 | -90.37546 | 624 ft | 11 kts | 239° |
| 2026-05-04 14:53 | 38.74983 | -90.37650 | 624 ft | 17 kts | 239° |
| 2026-05-04 14:54 | 38.74921 | -90.37786 | 627 ft | 18 kts | 242° |
| 2026-05-04 14:54 | 38.74867 | -90.37930 | 624 ft | 18 kts | 244° |
| 2026-05-04 14:54 | 38.74811 | -90.38077 | 629 ft | 19 kts | 244° |
| 2026-05-04 14:54 | 38.74753 | -90.38226 | 628 ft | 19 kts | 243° |
| 2026-05-04 14:55 | 38.74707 | -90.38340 | 619 ft | 10 kts | 244° |
| 2026-05-04 14:55 | 38.74717 | -90.38396 | 621 ft | 0 kts | 306° |
| 2026-05-04 14:56 | 38.74727 | -90.38414 | 614 ft | 13 kts | 306° |
| 2026-05-04 14:56 | 38.74879 | -90.38731 | 621 ft | 77 kts | 300° |
| 2026-05-04 14:57 | 38.75285 | -90.39560 | 621 ft | 139 kts | 302° |
| 2026-05-04 14:57 | 38.75865 | -90.40729 | 983 ft | 156 kts | 299° |
| 2026-05-04 14:57 | 38.76430 | -90.41897 | 1728 ft | 154 kts | 298° |
| 2026-05-04 14:57 | 38.77000 | -90.43061 | 2377 ft | 155 kts | 298° |
| 2026-05-04 14:58 | 38.77568 | -90.44316 | 2682 ft | 171 kts | 285° |
| 2026-05-04 14:58 | 38.77599 | -90.45858 | 2870 ft | 184 kts | 249° |
| 2026-05-04 14:58 | 38.76737 | -90.47173 | 3027 ft | 210 kts | 217° |
| 2026-05-04 14:58 | 38.75913 | -90.47917 | 3167 ft | 227 kts | 220° |
| 2026-05-04 14:59 | 38.74220 | -90.49730 | 3922 ft | 243 kts | 223° |
| 2026-05-04 14:59 | 38.72964 | -90.51154 | 4703 ft | 246 kts | 224° |
| 2026-05-04 14:59 | 38.70344 | -90.54115 | 6242 ft | 253 kts | 225° |
| 2026-05-04 15:00 | 38.69024 | -90.55583 | 6969 ft | 257 kts | 225° |
| 2026-05-04 15:00 | 38.67657 | -90.57088 | 7673 ft | 261 kts | 224° |
| 2026-05-04 15:00 | 38.66266 | -90.58610 | 8368 ft | 265 kts | 224° |
| 2026-05-04 15:01 | 38.63426 | -90.61710 | 9717 ft | 272 kts | 224° |
| 2026-05-04 15:01 | 38.61971 | -90.63297 | 10263 ft | 282 kts | 224° |
| 2026-05-04 15:01 | 38.60421 | -90.64997 | 10442 ft | 305 kts | 224° |
| 2026-05-04 15:01 | 38.58762 | -90.66810 | 10781 ft | 319 kts | 224° |
| 2026-05-04 15:02 | 38.57053 | -90.68665 | 11390 ft | 325 kts | 224° |
| 2026-05-04 15:02 | 38.55323 | -90.70537 | 12075 ft | 328 kts | 224° |
| 2026-05-04 15:02 | 38.53578 | -90.72427 | 12744 ft | 330 kts | 224° |
| 2026-05-04 15:02 | 38.51817 | -90.74336 | 13407 ft | 333 kts | 224° |
| 2026-05-04 15:03 | 38.50044 | -90.76254 | 14036 ft | 336 kts | 224° |
| 2026-05-04 15:03 | 38.48248 | -90.78194 | 14662 ft | 339 kts | 224° |
| 2026-05-04 15:03 | 38.46441 | -90.80144 | 15285 ft | 342 kts | 224° |
| 2026-05-04 15:03 | 38.44621 | -90.82111 | 15891 ft | 345 kts | 224° |
| 2026-05-04 15:04 | 38.42783 | -90.84098 | 16497 ft | 348 kts | 224° |
| 2026-05-04 15:04 | 38.41558 | -90.85424 | 16899 ft | 349 kts | 224° |
| 2026-05-04 15:04 | 38.39066 | -90.88116 | 17674 ft | 353 kts | 224° |
| 2026-05-04 15:04 | 38.37823 | -90.89459 | 18036 ft | 354 kts | 224° |
| 2026-05-04 15:05 | 38.35908 | -90.91520 | 18590 ft | 357 kts | 224° |
| 2026-05-04 15:05 | 38.33999 | -90.93572 | 19119 ft | 361 kts | 224° |
| 2026-05-04 15:05 | 38.32074 | -90.95639 | 19654 ft | 364 kts | 224° |
| 2026-05-04 15:05 | 38.30134 | -90.97725 | 20187 ft | 367 kts | 224° |
| 2026-05-04 15:06 | 38.28066 | -90.99669 | 20709 ft | 372 kts | 219° |
| 2026-05-04 15:06 | 38.25957 | -91.01529 | 21221 ft | 375 kts | 219° |
| 2026-05-04 15:06 | 38.23799 | -91.03419 | 21699 ft | 379 kts | 219° |
| 2026-05-04 15:07 | 38.19411 | -91.07248 | 22643 ft | 386 kts | 219° |
| 2026-05-04 15:07 | 38.17188 | -91.09189 | 23086 ft | 389 kts | 219° |
| 2026-05-04 15:07 | 38.14952 | -91.11146 | 23510 ft | 392 kts | 219° |
| 2026-05-04 15:07 | 38.12697 | -91.13120 | 23926 ft | 395 kts | 220° |
| 2026-05-04 15:08 | 38.10425 | -91.15105 | 24326 ft | 398 kts | 220° |
| 2026-05-04 15:08 | 38.08132 | -91.17105 | 24731 ft | 401 kts | 220° |
| 2026-05-04 15:08 | 38.05830 | -91.19112 | 25144 ft | 403 kts | 220° |
| 2026-05-04 15:08 | 38.03511 | -91.21129 | 25533 ft | 405 kts | 220° |
| 2026-05-04 15:09 | 38.01339 | -91.23364 | 25908 ft | 401 kts | 230° |
| 2026-05-04 15:09 | 37.99405 | -91.25906 | 26273 ft | 401 kts | 231° |
| 2026-05-04 15:09 | 37.97474 | -91.28471 | 26640 ft | 403 kts | 231° |
| 2026-05-04 15:10 | 37.93586 | -91.33624 | 27396 ft | 406 kts | 231° |
| 2026-05-04 15:10 | 37.91631 | -91.36207 | 27754 ft | 408 kts | 231° |
| 2026-05-04 15:10 | 37.87685 | -91.41404 | 28450 ft | 411 kts | 231° |
| 2026-05-04 15:11 | 37.85696 | -91.44016 | 28780 ft | 413 kts | 231° |
| 2026-05-04 15:11 | 37.83702 | -91.46639 | 29094 ft | 414 kts | 231° |
| 2026-05-04 15:11 | 37.81701 | -91.49272 | 29404 ft | 416 kts | 231° |
| 2026-05-04 15:11 | 37.79693 | -91.51913 | 29712 ft | 417 kts | 231° |
| 2026-05-04 15:12 | 37.77680 | -91.54558 | 30025 ft | 419 kts | 231° |
| 2026-05-04 15:12 | 37.75650 | -91.57220 | 30323 ft | 421 kts | 231° |
| 2026-05-04 15:12 | 37.73614 | -91.59885 | 30609 ft | 423 kts | 231° |
| 2026-05-04 15:12 | 37.71568 | -91.62563 | 30906 ft | 424 kts | 232° |
| 2026-05-04 15:13 | 37.69516 | -91.65243 | 31286 ft | 423 kts | 232° |
| 2026-05-04 15:13 | 37.67472 | -91.67911 | 31662 ft | 423 kts | 232° |
| 2026-05-04 15:13 | 37.65428 | -91.70576 | 32050 ft | 422 kts | 232° |
| 2026-05-04 15:13 | 37.63389 | -91.73231 | 32415 ft | 421 kts | 232° |
| 2026-05-04 15:14 | 37.61350 | -91.75886 | 32757 ft | 421 kts | 232° |
| 2026-05-04 15:14 | 37.59315 | -91.78535 | 33095 ft | 420 kts | 232° |
| 2026-05-04 15:14 | 37.57243 | -91.81138 | 33429 ft | 421 kts | 230° |
| 2026-05-04 15:14 | 37.55114 | -91.83685 | 33748 ft | 422 kts | 229° |
| 2026-05-04 15:15 | 37.52953 | -91.86189 | 34078 ft | 422 kts | 229° |
| 2026-05-04 15:15 | 37.50807 | -91.88643 | 34383 ft | 422 kts | 229° |
| 2026-05-04 15:15 | 37.48607 | -91.91158 | 34687 ft | 422 kts | 229° |
| 2026-05-04 15:16 | 37.44280 | -91.96145 | 35236 ft | 422 kts | 229° |
| 2026-05-04 15:16 | 37.42124 | -91.98656 | 35506 ft | 422 kts | 229° |
| 2026-05-04 15:16 | 37.37824 | -92.03688 | 35839 ft | 421 kts | 230° |
| 2026-05-04 15:17 | 37.35689 | -92.06180 | 35877 ft | 418 kts | 229° |
| 2026-05-04 15:17 | 37.29328 | -92.13577 | 35883 ft | 417 kts | 229° |
| 2026-05-04 15:18 | 37.25066 | -92.18524 | 35881 ft | 417 kts | 229° |
| 2026-05-04 15:19 | 37.18673 | -92.25926 | 35889 ft | 417 kts | 229° |
| 2026-05-04 15:19 | 37.12265 | -92.33320 | 35898 ft | 418 kts | 229° |
| 2026-05-04 15:20 | 37.07989 | -92.38255 | 35903 ft | 418 kts | 229° |
| 2026-05-04 15:20 | 37.03713 | -92.43183 | 35907 ft | 418 kts | 229° |
| 2026-05-04 15:21 | 36.99430 | -92.48106 | 35909 ft | 418 kts | 229° |
| 2026-05-04 15:22 | 36.92995 | -92.55468 | 35915 ft | 418 kts | 229° |
| 2026-05-04 15:22 | 36.86558 | -92.62838 | 35923 ft | 418 kts | 229° |
| 2026-05-04 15:23 | 36.82271 | -92.67737 | 35932 ft | 418 kts | 229° |
| 2026-05-04 15:23 | 36.77974 | -92.72622 | 35932 ft | 418 kts | 229° |
| 2026-05-04 15:24 | 36.69376 | -92.82396 | 35945 ft | 418 kts | 229° |
| 2026-05-04 15:25 | 36.65078 | -92.87278 | 35947 ft | 418 kts | 229° |
| 2026-05-04 15:26 | 36.58621 | -92.94588 | 35951 ft | 418 kts | 229° |
| 2026-05-04 15:26 | 36.52166 | -93.01872 | 35952 ft | 418 kts | 229° |
| 2026-05-04 15:27 | 36.45703 | -93.09149 | 35958 ft | 418 kts | 229° |
| 2026-05-04 15:28 | 36.39245 | -93.16417 | 35959 ft | 418 kts | 229° |
| 2026-05-04 15:29 | 36.32779 | -93.23666 | 35958 ft | 418 kts | 230° |
| 2026-05-04 15:30 | 36.17717 | -93.40501 | 35950 ft | 417 kts | 230° |
| 2026-05-04 15:31 | 36.11244 | -93.47707 | 35952 ft | 418 kts | 230° |
| 2026-05-04 15:32 | 36.00445 | -93.59668 | 35954 ft | 417 kts | 230° |
| 2026-05-04 15:34 | 35.89653 | -93.71612 | 35958 ft | 417 kts | 230° |
| 2026-05-04 15:34 | 35.83167 | -93.78749 | 35958 ft | 417 kts | 230° |
| 2026-05-04 15:35 | 35.76687 | -93.85865 | 35958 ft | 416 kts | 230° |
| 2026-05-04 15:36 | 35.70206 | -93.92975 | 35960 ft | 416 kts | 230° |
| 2026-05-04 15:36 | 35.65879 | -93.97705 | 35953 ft | 416 kts | 230° |
| 2026-05-04 15:37 | 35.61565 | -94.02422 | 35956 ft | 416 kts | 231° |
| 2026-05-04 15:37 | 35.57252 | -94.07144 | 35957 ft | 416 kts | 231° |
| 2026-05-04 15:38 | 35.52918 | -94.11867 | 35964 ft | 416 kts | 231° |
| 2026-05-04 15:38 | 35.48581 | -94.16579 | 35970 ft | 416 kts | 231° |
| 2026-05-04 15:39 | 35.44251 | -94.21278 | 35971 ft | 416 kts | 231° |
| 2026-05-04 15:40 | 35.37788 | -94.28289 | 35970 ft | 415 kts | 231° |
| 2026-05-04 15:40 | 35.33475 | -94.32996 | 35972 ft | 415 kts | 232° |
| 2026-05-04 15:41 | 35.29172 | -94.37702 | 35972 ft | 415 kts | 232° |
| 2026-05-04 15:41 | 35.24861 | -94.42402 | 35972 ft | 415 kts | 232° |
| 2026-05-04 15:42 | 35.20546 | -94.47092 | 35975 ft | 415 kts | 232° |
| 2026-05-04 15:42 | 35.16240 | -94.51767 | 35978 ft | 414 kts | 232° |
| 2026-05-04 15:43 | 35.11937 | -94.56431 | 35977 ft | 413 kts | 233° |
| 2026-05-04 15:43 | 35.07632 | -94.61088 | 35980 ft | 414 kts | 233° |
| 2026-05-04 15:44 | 35.03321 | -94.65739 | 35982 ft | 413 kts | 233° |
| 2026-05-04 15:44 | 34.99012 | -94.70382 | 35992 ft | 414 kts | 233° |
| 2026-05-04 15:45 | 34.94678 | -94.75002 | 35992 ft | 414 kts | 233° |
| 2026-05-04 15:45 | 34.90334 | -94.79608 | 35994 ft | 414 kts | 233° |
| 2026-05-04 15:46 | 34.85995 | -94.84204 | 35982 ft | 413 kts | 233° |
| 2026-05-04 15:46 | 34.81663 | -94.88785 | 35981 ft | 412 kts | 233° |
| 2026-05-04 15:47 | 34.77283 | -94.93311 | 35978 ft | 414 kts | 232° |
| 2026-05-04 15:47 | 34.72858 | -94.97792 | 35978 ft | 414 kts | 232° |
| 2026-05-04 15:48 | 34.68437 | -95.02277 | 35976 ft | 414 kts | 232° |
| 2026-05-04 15:48 | 34.61827 | -95.09021 | 35981 ft | 414 kts | 233° |
| 2026-05-04 15:49 | 34.57416 | -95.13508 | 35990 ft | 413 kts | 233° |
| 2026-05-04 15:49 | 34.53035 | -95.17959 | 35992 ft | 413 kts | 233° |
| 2026-05-04 15:50 | 34.48627 | -95.22426 | 35994 ft | 413 kts | 233° |
| 2026-05-04 15:50 | 34.44213 | -95.26882 | 35996 ft | 413 kts | 233° |
| 2026-05-04 15:51 | 34.39790 | -95.31332 | 35706 ft | 414 kts | 233° |
| 2026-05-04 15:51 | 34.38291 | -95.32842 | 35349 ft | 414 kts | 233° |
| 2026-05-04 15:51 | 34.36087 | -95.35059 | 34911 ft | 411 kts | 233° |
| 2026-05-04 15:52 | 34.33898 | -95.37256 | 34465 ft | 407 kts | 233° |
| 2026-05-04 15:52 | 34.31751 | -95.39409 | 34013 ft | 405 kts | 232° |
| 2026-05-04 15:52 | 34.29589 | -95.41570 | 33574 ft | 402 kts | 232° |
| 2026-05-04 15:52 | 34.27446 | -95.43714 | 33130 ft | 398 kts | 232° |
| 2026-05-04 15:53 | 34.25323 | -95.45844 | 32678 ft | 395 kts | 232° |
| 2026-05-04 15:53 | 34.23218 | -95.47958 | 32241 ft | 392 kts | 232° |
| 2026-05-04 15:53 | 34.21131 | -95.50051 | 31773 ft | 389 kts | 231° |
| 2026-05-04 15:53 | 34.19056 | -95.52128 | 31296 ft | 386 kts | 231° |
| 2026-05-04 15:54 | 34.16991 | -95.54192 | 30847 ft | 384 kts | 231° |
| 2026-05-04 15:54 | 34.14943 | -95.56239 | 30392 ft | 381 kts | 230° |
| 2026-05-04 15:54 | 34.12907 | -95.58271 | 29946 ft | 378 kts | 230° |
| 2026-05-04 15:54 | 34.10886 | -95.60284 | 29505 ft | 375 kts | 230° |
| 2026-05-04 15:55 | 34.08880 | -95.62281 | 29075 ft | 372 kts | 230° |
| 2026-05-04 15:55 | 34.06891 | -95.64259 | 28660 ft | 370 kts | 230° |
| 2026-05-04 15:55 | 34.04915 | -95.66225 | 28238 ft | 367 kts | 230° |
| 2026-05-04 15:55 | 34.02951 | -95.68177 | 27834 ft | 365 kts | 229° |
| 2026-05-04 15:56 | 34.00999 | -95.70113 | 27426 ft | 363 kts | 229° |
| 2026-05-04 15:56 | 33.99055 | -95.72033 | 27026 ft | 360 kts | 229° |
| 2026-05-04 15:56 | 33.97128 | -95.73942 | 26631 ft | 358 kts | 229° |
| 2026-05-04 15:56 | 33.95213 | -95.75838 | 26238 ft | 355 kts | 229° |
| 2026-05-04 15:57 | 33.93319 | -95.77727 | 25832 ft | 352 kts | 229° |
| 2026-05-04 15:57 | 33.91446 | -95.79607 | 25438 ft | 349 kts | 229° |
| 2026-05-04 15:57 | 33.89588 | -95.81473 | 25032 ft | 347 kts | 229° |
| 2026-05-04 15:57 | 33.87744 | -95.83326 | 24621 ft | 344 kts | 228° |
| 2026-05-04 15:58 | 33.85917 | -95.85160 | 24217 ft | 341 kts | 228° |
| 2026-05-04 15:58 | 33.84101 | -95.86980 | 23801 ft | 339 kts | 227° |
| 2026-05-04 15:58 | 33.82296 | -95.88782 | 23404 ft | 336 kts | 227° |
| 2026-05-04 15:58 | 33.80497 | -95.90563 | 22988 ft | 334 kts | 227° |
| 2026-05-04 15:59 | 33.78729 | -95.92304 | 22579 ft | 332 kts | 227° |
| 2026-05-04 15:59 | 33.76950 | -95.94051 | 22166 ft | 329 kts | 227° |
| 2026-05-04 15:59 | 33.75182 | -95.95790 | 21757 ft | 327 kts | 227° |
| 2026-05-04 15:59 | 33.73426 | -95.97519 | 21360 ft | 325 kts | 227° |
| 2026-05-04 16:00 | 33.71683 | -95.99236 | 20944 ft | 323 kts | 227° |
| 2026-05-04 16:00 | 33.69954 | -96.00941 | 20535 ft | 321 kts | 227° |
| 2026-05-04 16:00 | 33.68232 | -96.02635 | 20132 ft | 319 kts | 227° |
| 2026-05-04 16:00 | 33.66519 | -96.04319 | 19729 ft | 317 kts | 227° |
| 2026-05-04 16:01 | 33.64817 | -96.05991 | 19330 ft | 316 kts | 227° |
| 2026-05-04 16:01 | 33.63123 | -96.07656 | 18940 ft | 314 kts | 227° |
| 2026-05-04 16:01 | 33.61443 | -96.09311 | 18544 ft | 312 kts | 227° |
| 2026-05-04 16:01 | 33.59771 | -96.10955 | 18160 ft | 310 kts | 227° |
| 2026-05-04 16:02 | 33.58106 | -96.12590 | 17766 ft | 309 kts | 227° |
| 2026-05-04 16:02 | 33.56449 | -96.14216 | 17379 ft | 307 kts | 226° |
| 2026-05-04 16:02 | 33.53158 | -96.17437 | 16607 ft | 304 kts | 226° |
| 2026-05-04 16:03 | 33.51528 | -96.19036 | 16226 ft | 303 kts | 226° |
| 2026-05-04 16:03 | 33.49902 | -96.20629 | 15849 ft | 301 kts | 225° |
| 2026-05-04 16:03 | 33.48283 | -96.22212 | 15471 ft | 300 kts | 225° |
| 2026-05-04 16:03 | 33.46671 | -96.23787 | 15097 ft | 298 kts | 225° |
| 2026-05-04 16:04 | 33.45072 | -96.25354 | 14727 ft | 296 kts | 227° |
| 2026-05-04 16:04 | 33.42355 | -96.28926 | 14012 ft | 288 kts | 234° |
| 2026-05-04 16:04 | 33.41048 | -96.30733 | 13651 ft | 286 kts | 233° |
| 2026-05-04 16:05 | 33.39746 | -96.32525 | 13294 ft | 284 kts | 233° |
| 2026-05-04 16:05 | 33.38451 | -96.34301 | 12949 ft | 282 kts | 233° |
| 2026-05-04 16:05 | 33.35879 | -96.37825 | 12251 ft | 278 kts | 233° |
| 2026-05-04 16:06 | 33.34607 | -96.39571 | 12181 ft | 283 kts | 233° |
| 2026-05-04 16:06 | 33.31915 | -96.44886 | 11628 ft | 281 kts | 254° |
| 2026-05-04 16:07 | 33.31108 | -96.47809 | 11192 ft | 279 kts | 253° |
| 2026-05-04 16:07 | 33.29303 | -96.54237 | 10287 ft | 268 kts | 252° |
| 2026-05-04 16:08 | 33.28766 | -96.56356 | 9984 ft | 265 kts | 260° |
| 2026-05-04 16:08 | 33.28415 | -96.62872 | 9048 ft | 260 kts | 265° |
| 2026-05-04 16:09 | 33.28215 | -96.67166 | 8428 ft | 257 kts | 265° |
| 2026-05-04 16:09 | 33.28017 | -96.71419 | 7817 ft | 256 kts | 264° |
| 2026-05-04 16:10 | 33.27822 | -96.75620 | 7326 ft | 247 kts | 264° |
| 2026-05-04 16:11 | 33.27535 | -96.81707 | 6371 ft | 244 kts | 263° |
| 2026-05-04 16:11 | 33.27443 | -96.83714 | 6105 ft | 240 kts | 263° |
| 2026-05-04 16:12 | 33.27216 | -96.89575 | 5997 ft | 236 kts | 264° |
| 2026-05-04 16:12 | 33.26998 | -96.95455 | 5997 ft | 236 kts | 263° |
| 2026-05-04 16:13 | 33.25557 | -96.98829 | 5989 ft | 230 kts | 212° |
| 2026-05-04 16:13 | 33.22622 | -97.00329 | 5356 ft | 229 kts | 202° |
| 2026-05-04 16:14 | 33.19659 | -97.01676 | 4994 ft | 227 kts | 202° |
| 2026-05-04 16:14 | 33.16579 | -97.02477 | 4986 ft | 225 kts | 184° |
| 2026-05-04 16:15 | 33.12142 | -97.02486 | 4560 ft | 208 kts | 184° |
| 2026-05-04 16:16 | 33.09267 | -97.02501 | 4010 ft | 205 kts | 183° |
| 2026-05-04 16:16 | 33.05042 | -97.02524 | 3213 ft | 201 kts | 182° |
| 2026-05-04 16:17 | 33.02263 | -97.02540 | 2673 ft | 198 kts | 182° |
| 2026-05-04 16:18 | 32.98254 | -97.02561 | 1918 ft | 185 kts | 181° |
| 2026-05-04 16:18 | 32.97034 | -97.02568 | 1676 ft | 167 kts | 182° |
| 2026-05-04 16:19 | 32.94011 | -97.02583 | 1091 ft | 134 kts | 182° |
| 2026-05-04 16:19 | 32.92154 | -97.02595 | 724 ft | 134 kts | 182° |
| 2026-05-04 16:20 | 32.89906 | -97.02607 | 573 ft | 47 kts | 180° |
| 2026-05-04 16:20 | 32.89557 | -97.02688 | 569 ft | 21 kts | 208° |
| 2026-05-04 16:21 | 32.89390 | -97.02929 | 575 ft | 8 kts | 271° |
| 2026-05-04 16:22 | 32.89392 | -97.03088 | 576 ft | 16 kts | 271° |
| 2026-05-04 16:22 | 32.89394 | -97.03500 | 586 ft | 16 kts | 270° |
| 2026-05-04 16:23 | 32.89463 | -97.03738 | 587 ft | 1 kts | 353° |
| 2026-05-04 16:24 | 32.89469 | -97.03739 | 587 ft | 0 kts | 354° |